Flight Track Log - Related Links

Times and Time Zones

All times are in EDT time to prevent confusion due to time zone crossing. See the CSN6878 flight status page for this flight to view local times or setup timezone preferences in your user account.

Time Position Orientation Groundspeed Altitude Reporting Facility
EDT Latitude Longitude Course Direction KTS MPH feet Rate Location/Type
Thu 11:39:00 AM 41.8211 83.1838 55° Northeast  Level Estimated
Thu 11:40:00 AM 41.9239 83.3813 55° Northeast  Level Estimated
Thu 11:41:00 AM 42.0263 83.5795 55° Northeast  Level Estimated
Thu 11:42:00 AM 42.1283 83.7783 55° Northeast  Level Estimated
Thu 11:43:00 AM 42.2301 83.9777 55° Northeast  Level Estimated
Thu 11:44:00 AM 42.3314 84.1778 56° Northeast  Level Estimated
Thu 11:45:00 AM 42.4324 84.3785 56° Northeast  Level Estimated
Thu 11:46:00 AM 42.5331 84.5798 56° Northeast  Level Estimated
Thu 11:47:00 AM 42.6334 84.7819 56° Northeast  Level Estimated
Thu 11:48:00 AM 42.7334 84.9845 56° Northeast  Level Estimated
Thu 11:49:00 AM 42.8330 85.1878 56° Northeast  Level Estimated
Thu 11:50:00 AM 42.9322 85.3918 56° Northeast  Level Estimated
Thu 11:51:00 AM 43.0311 85.5964 56° Northeast  Level Estimated
Thu 11:52:00 AM 43.1296 85.8017 57° Northeast  Level Estimated
Thu 11:53:00 AM 43.2278 86.0077 57° Northeast  Level Estimated
Thu 11:54:00 AM 43.3255 86.2143 57° Northeast  Level Estimated
Thu 11:55:00 AM 43.4229 86.4215 57° Northeast  Level Estimated
Thu 11:56:00 AM 43.5200 86.6295 57° Northeast  Level Estimated
Thu 11:57:00 AM 43.6166 86.8381 57° Northeast  Level Estimated
Thu 11:58:00 AM 43.7129 87.0474 57° Northeast  Level Estimated
Thu 11:59:00 AM 43.8088 87.2573 58° Northeast  Level Estimated
Thu 12:00:00 PM 43.9043 87.4680 58° Northeast  Level Estimated
Thu 12:01:00 PM 43.9071 87.4742 58° Northeast  Level Estimated
Thu 12:02:00 PM 43.9071 87.4742 144° Southeast  Level Estimated
Thu 12:03:00 PM 43.9071 87.4742 144° Southeast  Level Estimated
Thu 12:04:00 PM 43.9071 87.4742 144° Southeast  Level Estimated
Thu 12:05:00 PM 43.9071 87.4742 144° Southeast  Level Estimated
Thu 12:06:00 PM 43.9071 87.4742 144° Southeast  Level Estimated
Thu 12:07:00 PM 43.9071 87.4742 144° Southeast  Level Estimated
Thu 12:08:00 PM 43.9071 87.4742 144° Southeast  Level Estimated
Thu 12:09:00 PM 43.9071 87.4742 144° Southeast  Level Estimated
Thu 12:10:00 PM 43.9071 87.4742 144° Southeast  Level Estimated
Thu 12:11:00 PM 43.9071 87.4742 144° Southeast  Level Estimated
Thu 12:12:00 PM 43.9071 87.4742 144° Southeast  Level Estimated
Thu 12:13:00 PM 43.9071 87.4742 144° Southeast  Level Estimated
Thu 12:14:00 PM 43.9071 87.4742 144° Southeast  Level Estimated
Thu 12:15:00 PM 43.9071 87.4742 144° Southeast  Level Estimated
Thu 12:16:00 PM 43.9071 87.4742 144° Southeast  Level Estimated

Login

Don't have an account? Register now (free) for customized features, flight alerts, and more!